Time;durP1;ratioP1;P1;durP2;ratioP2;P2;SDS_P1;SDS_P2;PMS_P1;PMS_P2;Temp;Humidity;BMP_temperature;BMP_pressure;BME280_temperature;BME280_humidity;BME280_pressure;Samples;Min_cycle;Max_cycle;Signal;HPM_P1;HPM_P2
2023/06/30 00:00:25;;;;;;;10.02;6.72;;;;;;;17.83;94.98;101029.72;5053632;28;20064;-63
2023/06/30 00:02:55;;;;;;;11.25;7.47;;;;;;;17.99;95.79;101016.63;5051357;28;20045;-62
2023/06/30 00:05:25;;;;;;;14.38;7.22;;;;;;;17.60;98.74;101011.09;5050326;28;20060;-63
2023/06/30 00:07:55;;;;;;;12.25;6.75;;;;;;;18.74;91.11;101006.28;5052157;28;20056;-62
2023/06/30 00:10:22;;;;;;;16.48;8.30;;;;;;;18.71;89.71;101007.00;5046887;28;20052;-62
2023/06/30 00:12:50;;;;;;;13.02;7.20;;;;;;;18.90;90.25;101006.25;5054675;28;20044;-63
2023/06/30 00:15:17;;;;;;;13.55;8.52;;;;;;;18.48;90.87;101003.22;5068809;28;20407;-62
2023/06/30 00:17:45;;;;;;;17.23;8.73;;;;;;;18.80;89.46;101006.81;5074763;28;20044;-62
2023/06/30 00:20:12;;;;;;;12.68;7.55;;;;;;;19.23;87.14;101005.84;5079562;28;20061;-62
2023/06/30 00:22:47;;;;;;;11.93;6.88;;;;;;;18.36;89.90;101005.28;5075757;28;20729;-63
2023/06/30 00:25:15;;;;;;;12.45;6.70;;;;;;;18.28;93.13;101001.47;5074544;28;20400;-62
2023/06/30 00:27:42;;;;;;;10.45;6.03;;;;;;;18.64;88.58;101008.81;5086712;28;20052;-63
2023/06/30 00:30:10;;;;;;;9.30;5.45;;;;;;;18.69;88.44;101000.97;5085967;28;20064;-63
2023/06/30 00:32:37;;;;;;;11.38;5.82;;;;;;;18.15;90.18;101007.50;5075853;28;20036;-64
2023/06/30 00:35:05;;;;;;;15.45;8.60;;;;;;;18.28;90.72;101001.47;5074155;28;20044;-63
2023/06/30 00:37:33;;;;;;;15.05;9.45;;;;;;;18.09;90.14;101006.94;5070735;28;20041;-63
2023/06/30 00:40:00;;;;;;;27.27;12.07;;;;;;;17.92;91.77;101012.84;5058321;28;20056;-63
2023/06/30 00:42:28;;;;;;;19.05;11.65;;;;;;;18.14;90.60;101017.81;5055671;28;20045;-64
2023/06/30 00:44:55;;;;;;;20.02;14.40;;;;;;;17.97;93.67;101015.38;5054390;28;20060;-63
2023/06/30 00:47:23;;;;;;;26.23;18.10;;;;;;;18.25;89.08;101007.78;5059131;28;20656;-63
2023/06/30 00:49:52;;;;;;;27.40;17.80;;;;;;;18.49;86.21;101018.00;5075530;28;20060;-63
2023/06/30 00:52:20;;;;;;;21.45;14.27;;;;;;;18.80;87.43;101015.19;5075022;28;20052;-63
2023/06/30 00:54:47;;;;;;;23.92;17.17;;;;;;;19.12;82.57;101022.38;5075584;28;20048;-63
2023/06/30 00:57:15;;;;;;;27.98;16.77;;;;;;;18.11;86.08;101020.53;5073332;28;20056;-63
2023/06/30 00:59:42;;;;;;;27.08;17.65;;;;;;;17.72;89.81;101025.81;5074091;28;20058;-63
2023/06/30 01:02:18;;;;;;;29.10;18.15;;;;;;;17.68;89.93;101022.09;5073666;28;20049;-63
2023/06/30 01:05:05;;;;;;;23.05;14.52;;;;;;;17.89;88.90;101025.50;5073616;28;20045;-63
2023/06/30 01:07:45;;;;;;;29.38;17.42;;;;;;;17.58;89.49;101039.31;5074790;28;20057;-63
2023/06/30 01:10:15;;;;;;;29.15;17.58;;;;;;;18.05;89.69;101030.28;5074135;28;20053;-67
2023/06/30 01:12:43;;;;;;;26.23;16.52;;;;;;;17.45;91.34;101040.44;5073610;28;20544;-67
2023/06/30 01:15:11;;;;;;;24.02;13.38;;;;;;;18.13;88.56;101026.56;5063414;28;20060;-67
2023/06/30 01:17:50;;;;;;;19.10;10.88;;;;;;;18.60;85.30;101019.09;5061802;28;20711;-66
2023/06/30 01:20:19;;;;;;;16.90;10.82;;;;;;;18.37;84.50;101032.00;5077502;28;20060;-67
2023/06/30 01:22:51;;;;;;;21.92;12.95;;;;;;;18.11;87.25;101029.69;5073269;28;20049;-66
2023/06/30 01:25:20;;;;;;;17.63;10.13;;;;;;;17.51;88.40;101054.97;5074297;28;20063;-67
2023/06/30 01:27:49;;;;;;;13.70;9.32;;;;;;;18.18;87.28;101040.22;5087412;28;20051;-67
2023/06/30 01:30:17;;;;;;;9.97;4.23;;;;;;;17.55;86.16;101047.56;5077650;28;20049;-67
2023/06/30 01:32:46;;;;;;;9.10;4.35;;;;;;;17.23;88.90;101057.66;5054944;28;20294;-67
2023/06/30 01:35:14;;;;;;;7.38;3.42;;;;;;;17.29;89.44;101055.47;5074732;28;20055;-67
2023/06/30 01:37:41;;;;;;;7.65;4.90;;;;;;;17.57;89.50;101054.38;5073954;28;20055;-68
2023/06/30 01:40:09;;;;;;;5.22;3.20;;;;;;;17.80;87.48;101051.91;5072861;28;20049;-66
2023/06/30 01:42:37;;;;;;;3.72;2.20;;;;;;;17.29;87.13;101056.28;5074550;28;20052;-66
2023/06/30 01:45:06;;;;;;;2.92;1.98;;;;;;;17.13;88.01;101060.13;5056940;28;20045;-67
2023/06/30 01:47:33;;;;;;;6.25;1.95;;;;;;;16.72;90.19;101059.19;5073011;28;20047;-66
2023/06/30 01:50:01;;;;;;;3.85;1.92;;;;;;;16.61;91.09;101065.56;5056248;28;20249;-66
2023/06/30 01:52:29;;;;;;;4.65;1.77;;;;;;;16.96;90.01;101058.41;5056648;28;20033;-66
2023/06/30 01:54:57;;;;;;;2.88;1.60;;;;;;;16.85;90.04;101060.81;5073190;28;20052;-67
2023/06/30 01:57:25;;;;;;;6.25;2.42;;;;;;;16.79;91.07;101056.63;5072678;28;20427;-66
2023/06/30 01:59:52;;;;;;;5.13;2.35;;;;;;;16.86;88.97;101045.75;5072165;28;20045;-66
2023/06/30 02:02:20;;;;;;;6.43;2.83;;;;;;;16.89;88.75;101045.03;5074076;28;20048;-67
2023/06/30 02:04:48;;;;;;;5.78;2.40;;;;;;;16.90;89.37;101043.06;5072443;28;20059;-67
2023/06/30 02:07:16;;;;;;;6.30;3.38;;;;;;;16.85;89.29;101058.03;5055383;28;20052;-66
2023/06/30 02:09:44;;;;;;;4.30;3.08;;;;;;;16.92;90.96;101053.84;5054336;28;20625;-68
2023/06/30 02:12:15;;;;;;;6.25;3.78;;;;;;;17.03;88.76;101041.09;5070868;28;20617;-66
2023/06/30 02:14:43;;;;;;;8.00;5.03;;;;;;;16.85;88.81;101054.44;5072128;28;20044;-67
2023/06/30 02:17:11;;;;;;;10.90;5.60;;;;;;;16.84;89.63;101052.84;5072839;28;20048;-67
2023/06/30 02:19:38;;;;;;;7.95;5.65;;;;;;;16.65;90.50;101055.34;5062694;28;20057;-67
2023/06/30 02:22:06;;;;;;;7.53;5.13;;;;;;;16.88;90.72;101056.53;5058229;28;20806;-67
2023/06/30 02:24:33;;;;;;;7.90;5.15;;;;;;;16.98;89.08;101053.25;5073232;28;20052;-67
2023/06/30 02:27:01;;;;;;;6.38;3.95;;;;;;;16.98;87.57;101058.84;5073502;28;20555;-66
2023/06/30 02:29:31;;;;;;;12.80;7.18;;;;;;;16.67;89.63;101053.84;5069032;28;20496;-66
2023/06/30 02:31:58;;;;;;;12.30;7.38;;;;;;;16.82;89.08;101060.72;5044372;28;20052;-67
2023/06/30 02:34:25;;;;;;;14.38;7.35;;;;;;;17.06;87.72;101059.88;5053757;28;20053;-67
2023/06/30 02:36:53;;;;;;;15.93;8.48;;;;;;;17.03;87.57;101064.19;5058090;28;20401;-66
2023/06/30 02:39:20;;;;;;;10.43;6.40;;;;;;;16.88;87.77;101057.34;5070770;28;20045;-68
2023/06/30 02:41:48;;;;;;;10.52;6.88;;;;;;;16.94;87.96;101057.09;5071468;28;20047;-67
2023/06/30 02:44:15;;;;;;;12.85;7.15;;;;;;;17.33;86.48;101070.31;5071988;28;20045;-67
2023/06/30 02:46:42;;;;;;;13.85;7.93;;;;;;;17.10;85.90;101058.84;5071477;28;20059;-67
2023/06/30 02:49:09;;;;;;;10.23;6.32;;;;;;;16.86;87.99;101065.22;5055263;28;20455;-67
2023/06/30 02:51:37;;;;;;;10.23;6.93;;;;;;;17.12;87.96;101061.28;5053230;28;20053;-68
2023/06/30 02:54:04;;;;;;;13.13;6.00;;;;;;;17.79;83.99;101048.31;5053040;28;20044;-67
2023/06/30 02:56:33;;;;;;;9.18;5.43;;;;;;;18.76;80.32;101039.41;5055956;28;20526;-68
2023/06/30 02:59:00;;;;;;;9.15;4.72;;;;;;;18.60;78.53;101036.63;5071637;28;20043;-67
2023/06/30 03:01:28;;;;;;;10.63;5.43;;;;;;;18.77;79.11;101041.88;5073398;28;20055;-66
2023/06/30 03:03:56;;;;;;;9.05;5.55;;;;;;;18.71;78.49;101039.69;5071625;28;20044;-67
2023/06/30 03:06:27;;;;;;;10.85;6.93;;;;;;;18.33;78.80;101040.25;5071683;28;20052;-67
2023/06/30 03:08:54;;;;;;;10.77;6.40;;;;;;;18.85;77.93;101038.06;5071513;28;20567;-67
2023/06/30 03:11:26;;;;;;;15.85;9.60;;;;;;;18.38;78.28;101039.16;5071395;28;20705;-67
2023/06/30 03:13:54;;;;;;;18.52;10.93;;;;;;;17.37;83.51;101044.19;5038795;28;20049;-67
2023/06/30 03:16:24;;;;;;;14.18;9.05;;;;;;;17.97;82.86;101041.25;5071717;28;20048;-68
2023/06/30 03:18:52;;;;;;;15.90;9.55;;;;;;;18.36;79.77;101045.13;5077169;28;20044;-67
2023/06/30 03:21:20;;;;;;;19.85;11.60;;;;;;;18.36;78.08;101045.13;5071722;28;20055;-66
2023/06/30 03:23:48;;;;;;;16.75;10.68;;;;;;;17.98;81.65;101042.88;5055119;28;20056;-66
2023/06/30 03:26:16;;;;;;;18.45;10.52;;;;;;;18.34;81.02;101053.03;5055033;28;20049;-67
2023/06/30 03:28:43;;;;;;;17.77;10.50;;;;;;;18.72;78.45;101032.94;5078348;28;20048;-67
2023/06/30 03:31:13;;;;;;;15.75;9.57;;;;;;;18.45;79.35;101037.41;5084454;28;20051;-67
2023/06/30 03:33:41;;;;;;;18.88;10.80;;;;;;;18.55;78.14;101030.50;5071593;28;20044;-66
2023/06/30 03:36:10;;;;;;;12.32;7.72;;;;;;;17.73;80.70;101029.41;5072476;28;20056;-67
2023/06/30 03:38:38;;;;;;;10.13;6.35;;;;;;;17.51;81.23;101029.91;5071342;28;20048;-68
2023/06/30 03:41:07;;;;;;;9.18;6.05;;;;;;;17.45;81.01;101028.53;5071684;28;20051;-68
2023/06/30 03:43:34;;;;;;;10.10;6.35;;;;;;;17.06;83.58;101034.84;5072801;28;20044;-67
2023/06/30 03:46:03;;;;;;;12.10;6.55;;;;;;;17.06;83.77;101034.84;5058153;28;20056;-67
2023/06/30 03:48:30;;;;;;;13.57;6.88;;;;;;;17.21;84.82;101034.16;5058559;28;20052;-67
2023/06/30 03:50:57;;;;;;;12.25;6.88;;;;;;;17.04;84.36;101040.75;5076922;28;20063;-67
2023/06/30 03:53:25;;;;;;;14.48;7.20;;;;;;;16.68;85.89;101043.53;5075504;28;20049;-67
2023/06/30 03:55:52;;;;;;;12.43;6.90;;;;;;;17.08;86.48;101035.31;5075328;28;20064;-64
2023/06/30 03:58:19;;;;;;;9.77;6.60;;;;;;;18.73;79.57;101027.00;5074966;28;20056;-70
2023/06/30 04:00:47;;;;;;;14.15;6.82;;;;;;;19.21;74.51;101027.75;5076802;28;20056;-68
2023/06/30 04:03:14;;;;;;;11.10;5.85;;;;;;;18.91;74.16;101027.44;5076558;28;20047;-67
2023/06/30 04:05:42;;;;;;;10.88;5.28;;;;;;;18.38;73.91;101028.84;5076746;28;20044;-67
2023/06/30 04:08:10;;;;;;;8.13;5.18;;;;;;;17.40;78.84;101040.69;5074359;28;20488;-67
2023/06/30 04:10:38;;;;;;;10.18;5.10;;;;;;;17.12;82.47;101039.03;5074796;28;20055;-67
2023/06/30 04:13:06;;;;;;;9.48;5.28;;;;;;;17.64;81.94;101043.44;5076681;28;20058;-67
2023/06/30 04:15:33;;;;;;;9.55;5.00;;;;;;;18.74;75.93;101034.19;5076621;28;20044;-68
2023/06/30 04:18:01;;;;;;;8.70;5.55;;;;;;;18.44;75.89;101033.03;5077054;28;20393;-68
2023/06/30 04:20:29;;;;;;;7.90;4.80;;;;;;;18.11;75.52;101043.66;5061564;28;20052;-68
2023/06/30 04:22:56;;;;;;;10.63;5.43;;;;;;;17.97;80.82;101034.88;5075873;28;20053;-68
2023/06/30 04:25:23;;;;;;;11.60;5.72;;;;;;;18.43;75.97;101047.34;5076139;28;20056;-70
2023/06/30 04:27:51;;;;;;;10.82;5.47;;;;;;;18.35;76.92;101042.69;5075857;28;20052;-67
2023/06/30 04:30:19;;;;;;;9.98;5.15;;;;;;;18.08;76.63;101047.13;5058921;28;20056;-67
2023/06/30 04:32:46;;;;;;;12.30;5.13;;;;;;;18.94;75.86;101040.66;5069665;28;20415;-67
2023/06/30 04:35:14;;;;;;;9.90;5.60;;;;;;;18.44;75.09;101037.78;5074760;28;20055;-68
2023/06/30 04:37:42;;;;;;;11.45;5.88;;;;;;;17.52;79.72;101045.47;5074561;28;20059;-67
2023/06/30 04:40:09;;;;;;;11.63;6.10;;;;;;;18.14;80.50;101030.94;5074940;28;20059;-67
2023/06/30 04:42:37;;;;;;;13.32;6.20;;;;;;;18.80;76.95;101034.72;5068793;28;20082;-68
2023/06/30 04:45:05;;;;;;;12.10;6.60;;;;;;;18.23;76.32;101042.75;5075876;28;20044;-69
2023/06/30 04:47:32;;;;;;;12.48;6.30;;;;;;;16.86;85.34;101042.13;5066739;28;20055;-68
2023/06/30 04:50:00;;;;;;;11.20;6.18;;;;;;;16.49;89.63;101038.50;5076002;28;20056;-67
2023/06/30 04:52:27;;;;;;;10.27;5.63;;;;;;;17.34;86.97;101042.13;5070054;28;20048;-67
2023/06/30 04:54:56;;;;;;;9.73;5.35;;;;;;;18.10;83.51;101033.63;5068223;28;20049;-67
2023/06/30 04:57:23;;;;;;;11.00;5.05;;;;;;;18.19;79.80;101025.94;5074589;28;20052;-68
2023/06/30 04:59:54;;;;;;;12.50;5.70;;;;;;;17.44;82.39;101047.19;5057079;28;20049;-68
2023/06/30 05:02:22;;;;;;;10.27;4.70;;;;;;;17.94;83.11;101030.00;5064780;28;20056;-66
2023/06/30 05:04:51;;;;;;;10.15;4.70;;;;;;;18.68;78.89;101030.06;5037955;28;20049;-67
2023/06/30 05:07:18;;;;;;;10.57;4.13;;;;;;;18.66;76.21;101026.00;5065778;28;20060;-66
2023/06/30 05:09:46;;;;;;;11.05;4.20;;;;;;;19.27;74.70;101029.88;5074443;28;20067;-67
2023/06/30 05:12:14;;;;;;;7.85;3.83;;;;;;;18.79;75.83;101035.91;5064540;28;20072;-67
2023/06/30 05:14:42;;;;;;;7.50;3.90;;;;;;;18.86;76.63;101036.09;5053845;28;20052;-66
2023/06/30 05:17:09;;;;;;;6.72;3.30;;;;;;;19.33;73.36;101036.03;5053645;28;20079;-66
2023/06/30 05:19:37;;;;;;;10.07;3.13;;;;;;;18.86;75.63;101036.88;5076599;28;20059;-67
2023/06/30 05:22:05;;;;;;;6.20;3.03;;;;;;;18.55;77.55;101036.88;5074831;28;20037;-67
2023/06/30 05:24:33;;;;;;;9.20;3.65;;;;;;;18.54;78.36;101040.03;5065603;28;20056;-66
2023/06/30 05:27:01;;;;;;;5.47;2.70;;;;;;;19.41;73.38;101040.59;5067538;28;20055;-68
2023/06/30 05:29:30;;;;;;;6.57;3.00;;;;;;;19.58;72.27;101037.41;5091143;28;20053;-67
2023/06/30 05:31:58;;;;;;;5.18;2.40;;;;;;;19.19;73.85;101036.50;5057208;28;20549;-67
2023/06/30 05:34:26;;;;;;;7.80;3.00;;;;;;;18.18;78.47;101048.59;5074702;28;20040;-66
2023/06/30 05:36:55;;;;;;;7.45;3.33;;;;;;;18.47;77.80;101048.22;5074239;28;20056;-67
2023/06/30 05:39:23;;;;;;;9.95;3.33;;;;;;;19.07;74.66;101037.41;5074099;28;20060;-68
2023/06/30 05:41:50;;;;;;;5.68;2.83;;;;;;;19.22;73.67;101046.13;5074483;28;20057;-67
2023/06/30 05:44:17;;;;;;;10.40;2.65;;;;;;;19.49;72.90;101045.19;5072817;28;20048;-68
2023/06/30 05:46:45;;;;;;;7.22;3.20;;;;;;;18.77;74.76;101055.81;5067428;28;20048;-68
2023/06/30 05:49:12;;;;;;;5.40;2.83;;;;;;;19.23;73.75;101044.97;5066566;28;20049;-67
2023/06/30 05:51:39;;;;;;;8.77;4.07;;;;;;;18.82;72.42;101049.97;5054144;28;20057;-66
2023/06/30 05:54:07;;;;;;;7.03;3.20;;;;;;;18.50;76.50;101041.91;5074153;28;20055;-68
2023/06/30 05:56:34;;;;;;;5.70;3.13;;;;;;;18.83;73.43;101050.75;5072045;28;20055;-67
2023/06/30 05:59:01;;;;;;;6.50;3.33;;;;;;;18.35;75.94;101051.06;5074248;28;20056;-63
2023/06/30 06:01:29;;;;;;;7.05;3.60;;;;;;;18.25;74.45;101048.78;5063093;28;20053;-63
2023/06/30 06:03:57;;;;;;;6.32;3.42;;;;;;;18.28;74.72;101056.44;5068135;28;20049;-63
2023/06/30 06:06:24;;;;;;;7.72;3.70;;;;;;;17.93;75.86;101059.03;5073237;28;20293;-64
2023/06/30 06:08:52;;;;;;;6.75;3.70;;;;;;;17.74;78.84;101054.13;5073624;28;20460;-63
2023/06/30 06:11:19;;;;;;;7.60;3.83;;;;;;;17.19;78.59;101051.16;5055379;28;20057;-64
2023/06/30 06:13:46;;;;;;;7.00;3.38;;;;;;;18.13;79.73;101054.44;5073491;28;20052;-67
2023/06/30 06:16:13;;;;;;;7.63;3.40;;;;;;;17.83;76.12;101052.00;5091724;28;20044;-68
2023/06/30 06:18:41;;;;;;;7.57;3.17;;;;;;;18.77;75.21;101053.03;5073574;28;20056;-70
2023/06/30 06:21:08;;;;;;;6.47;3.17;;;;;;;19.27;71.43;101055.03;5060574;28;20044;-67
2023/06/30 06:23:36;;;;;;;7.00;3.92;;;;;;;18.66;74.04;101057.50;5055040;28;20061;-67
2023/06/30 06:26:03;;;;;;;7.20;3.00;;;;;;;19.50;71.67;101057.97;5057245;28;20041;-67
2023/06/30 06:28:30;;;;;;;6.20;3.47;;;;;;;18.79;72.01;101069.41;5061934;28;20041;-68
2023/06/30 06:30:58;;;;;;;5.45;3.10;;;;;;;18.06;75.01;101073.75;5055735;28;20060;-68
2023/06/30 06:33:25;;;;;;;6.55;3.10;;;;;;;18.64;75.45;101076.59;5072162;28;20059;-67
2023/06/30 06:35:53;;;;;;;10.70;3.55;;;;;;;18.60;73.77;101075.69;5059309;28;20045;-67
2023/06/30 06:38:21;;;;;;;6.65;3.25;;;;;;;18.47;75.13;101079.72;5062686;28;20052;-67
2023/06/30 06:40:48;;;;;;;6.53;2.97;;;;;;;19.49;72.23;101067.53;5056488;28;20059;-63
2023/06/30 06:43:16;;;;;;;10.50;3.30;;;;;;;19.35;70.56;101082.00;5065204;28;20048;-63
2023/06/30 06:45:45;;;;;;;11.38;3.63;;;;;;;19.20;70.34;101073.59;5056004;28;20045;-63
2023/06/30 06:48:26;;;;;;;6.75;3.25;;;;;;;18.30;71.45;101082.81;5055572;28;20075;-63
2023/06/30 06:50:57;;;;;;;8.18;2.97;;;;;;;18.87;70.50;101085.97;5066441;28;20056;-63
2023/06/30 06:53:33;;;;;;;5.90;2.90;;;;;;;19.51;67.09;101085.56;5056432;28;20052;-65
2023/06/30 06:56:01;;;;;;;6.80;2.88;;;;;;;19.86;64.86;101080.75;5055478;28;20051;-62
2023/06/30 06:58:33;;;;;;;6.20;3.30;;;;;;;19.04;67.25;101093.16;5060575;28;20127;-63
2023/06/30 07:01:00;;;;;;;10.45;3.63;;;;;;;18.08;71.56;101088.94;5057098;28;20048;-63
2023/06/30 07:03:27;;;;;;;8.95;3.20;;;;;;;18.73;71.50;101082.00;5063381;28;20049;-64
2023/06/30 07:05:56;;;;;;;6.25;3.35;;;;;;;19.57;67.50;101075.72;5059750;28;20059;-62
2023/06/30 07:08:26;;;;;;;8.10;3.28;;;;;;;19.37;65.92;101085.22;5057753;28;20052;-62
2023/06/30 07:10:55;;;;;;;9.15;2.92;;;;;;;18.80;66.78;101083.00;5066173;28;20059;-63
2023/06/30 07:13:23;;;;;;;8.27;2.58;;;;;;;18.36;65.64;101086.16;5059863;28;20052;-61
2023/06/30 07:15:50;;;;;;;7.70;2.53;;;;;;;18.63;65.09;101088.94;5053898;28;20041;-61
2023/06/30 07:18:18;;;;;;;7.25;2.60;;;;;;;18.30;66.42;101082.81;5056051;28;20060;-61
2023/06/30 07:20:47;;;;;;;6.90;2.15;;;;;;;18.76;62.90;101084.06;5051515;28;20067;-62
2023/06/30 07:23:15;;;;;;;6.45;2.80;;;;;;;18.48;65.40;101080.53;5053457;28;20060;-62
2023/06/30 07:25:43;;;;;;;6.10;2.47;;;;;;;18.08;67.04;101094.50;5049674;28;20539;-61
2023/06/30 07:28:12;;;;;;;8.43;3.10;;;;;;;17.77;69.47;101106.34;5043454;28;20056;-62
2023/06/30 07:30:40;;;;;;;10.23;3.20;;;;;;;18.27;68.45;101099.44;5056397;28;20053;-63
2023/06/30 07:33:13;;;;;;;5.95;2.60;;;;;;;19.22;65.44;101094.41;5054947;28;20041;-62
2023/06/30 07:35:41;;;;;;;8.73;2.92;;;;;;;19.76;63.07;101086.09;5054811;28;20044;-62
2023/06/30 07:38:08;;;;;;;10.25;2.90;;;;;;;19.82;62.40;101088.25;5059618;28;20057;-60
2023/06/30 07:40:36;;;;;;;9.82;2.75;;;;;;;20.13;61.36;101090.94;5053865;28;20056;-61
2023/06/30 07:43:21;;;;;;;9.35;3.45;;;;;;;20.08;60.98;101093.19;5056563;28;20053;-62
2023/06/30 07:45:49;;;;;;;7.93;2.88;;;;;;;19.61;64.05;101090.59;5040403;28;20040;-62
2023/06/30 07:48:16;;;;;;;10.73;3.38;;;;;;;19.36;62.33;101082.78;5057923;28;20542;-63
2023/06/30 07:50:44;;;;;;;10.77;2.90;;;;;;;19.21;61.25;101089.19;5058848;28;20049;-61
2023/06/30 07:53:25;;;;;;;8.18;2.85;;;;;;;19.90;59.93;101090.03;5052422;28;20488;-61
2023/06/30 07:55:53;;;;;;;7.78;2.83;;;;;;;20.36;57.78;101085.41;5055906;28;20045;-63
2023/06/30 07:58:20;;;;;;;10.60;2.97;;;;;;;20.06;60.31;101090.78;5056326;28;20053;-62
2023/06/30 08:00:48;;;;;;;9.18;2.92;;;;;;;20.58;59.03;101089.41;5052906;28;20059;-62
2023/06/30 08:03:15;;;;;;;8.85;3.00;;;;;;;20.17;56.94;101086.22;5040947;28;20049;-62
2023/06/30 08:05:43;;;;;;;10.77;2.75;;;;;;;19.69;57.91;101091.53;5059787;28;20087;-62
2023/06/30 08:08:11;;;;;;;8.82;3.00;;;;;;;20.05;58.02;101091.94;5050158;28;20049;-63
2023/06/30 08:10:40;;;;;;;7.00;2.83;;;;;;;20.72;55.72;101095.28;5049019;28;20536;-61
2023/06/30 08:13:10;;;;;;;7.80;2.60;;;;;;;20.96;54.39;101087.31;5054032;28;20049;-62
2023/06/30 08:15:37;;;;;;;8.15;2.90;;;;;;;20.93;54.72;101092.84;5064552;28;20428;-62
2023/06/30 08:18:04;;;;;;;7.75;2.90;;;;;;;21.27;54.24;101088.25;5058439;28;20048;-62
2023/06/30 08:20:38;;;;;;;8.05;3.15;;;;;;;21.47;53.13;101081.34;5059559;28;20056;-62
2023/06/30 08:23:05;;;;;;;7.03;2.25;;;;;;;21.47;51.91;101084.13;5057347;28;21606;-63
2023/06/30 08:25:32;;;;;;;8.52;2.47;;;;;;;21.51;51.26;101082.19;5052371;28;20584;-62
2023/06/30 08:28:00;;;;;;;4.00;2.05;;;;;;;21.36;50.24;101086.78;5050334;28;20052;-62
2023/06/30 08:30:27;;;;;;;5.05;2.30;;;;;;;21.39;49.88;101088.03;5052632;28;20040;-61
2023/06/30 08:32:55;;;;;;;6.35;2.75;;;;;;;21.60;49.49;101075.13;5063726;28;20053;-62
2023/06/30 08:35:24;;;;;;;7.95;2.42;;;;;;;21.91;49.80;101079.59;5056873;28;20097;-61
2023/06/30 08:37:52;;;;;;;8.20;2.08;;;;;;;21.40;48.23;101084.03;5055959;28;20444;-62
2023/06/30 08:40:25;;;;;;;5.60;2.03;;;;;;;21.60;47.91;101075.13;5054240;28;20048;-62
2023/06/30 08:42:54;;;;;;;7.53;2.42;;;;;;;22.04;47.32;101076.16;5058880;28;20051;-64
2023/06/30 08:45:24;;;;;;;7.60;2.60;;;;;;;22.24;46.71;101076.78;5051300;28;20037;-61
2023/06/30 08:47:51;;;;;;;11.40;2.20;;;;;;;21.88;43.11;101077.56;5060792;28;20045;-63
2023/06/30 08:50:21;;;;;;;7.47;1.90;;;;;;;21.54;40.66;101073.03;5057253;28;20048;-62
2023/06/30 08:52:49;;;;;;;4.57;1.50;;;;;;;21.17;38.98;101067.25;5055191;28;20041;-62
2023/06/30 08:55:16;;;;;;;6.50;1.63;;;;;;;20.40;41.48;101074.28;5045586;28;20040;-62
2023/06/30 08:57:45;;;;;;;4.53;1.17;;;;;;;20.95;41.13;101062.47;5041868;28;20057;-62
2023/06/30 09:00:13;;;;;;;4.63;1.40;;;;;;;21.48;40.94;101061.31;5064255;28;20057;-62
2023/06/30 09:02:41;;;;;;;7.80;2.03;;;;;;;21.56;41.03;101063.06;5056103;28;20052;-61
2023/06/30 09:05:09;;;;;;;14.32;1.80;;;;;;;20.69;43.36;101054.84;5060683;28;20049;-62
2023/06/30 09:07:54;;;;;;;7.95;1.83;;;;;;;20.89;42.54;101061.16;5045909;28;20045;-62
2023/06/30 09:10:37;;;;;;;4.07;1.60;;;;;;;20.70;42.65;101059.25;5056169;28;20052;-62
2023/06/30 09:13:04;;;;;;;8.27;1.73;;;;;;;21.58;42.33;101049.47;5060172;28;20052;-62
2023/06/30 09:15:32;;;;;;;7.88;1.80;;;;;;;21.65;42.59;101051.56;5058963;28;20052;-62
2023/06/30 09:18:00;;;;;;;4.13;1.83;;;;;;;21.77;42.46;101051.31;5054089;28;20045;-66
2023/06/30 09:20:27;;;;;;;5.68;1.88;;;;;;;21.41;42.41;101058.41;5059849;28;20044;-62
2023/06/30 09:22:55;;;;;;;5.88;1.85;;;;;;;21.89;41.73;101046.31;5057368;28;20064;-62
2023/06/30 09:25:26;;;;;;;8.68;2.00;;;;;;;22.27;40.87;101042.34;5061233;28;20053;-62
2023/06/30 09:27:54;;;;;;;5.32;1.80;;;;;;;21.62;41.21;101046.72;5053846;28;20049;-62
2023/06/30 09:30:32;;;;;;;7.72;2.08;;;;;;;21.83;40.72;101038.59;5055665;28;20119;-62
2023/06/30 09:33:00;;;;;;;5.72;1.92;;;;;;;21.86;41.30;101035.84;5059483;28;20056;-65
2023/06/30 09:35:38;;;;;;;5.72;2.10;;;;;;;21.75;41.57;101039.69;5058271;28;20064;-61
2023/06/30 09:38:13;;;;;;;8.70;2.05;;;;;;;21.69;42.03;101044.81;5058752;28;20484;-62
2023/06/30 09:40:48;;;;;;;5.90;2.10;;;;;;;22.05;41.95;101044.13;5060537;28;20060;-62
2023/06/30 09:43:17;;;;;;;6.70;1.90;;;;;;;22.11;40.92;101036.97;5053420;28;20048;-62
2023/06/30 09:45:46;;;;;;;7.50;1.90;;;;;;;22.01;41.75;101043.25;5048462;28;20515;-64
2023/06/30 09:48:15;;;;;;;6.68;2.00;;;;;;;21.89;42.61;101037.91;5053932;28;20648;-62
2023/06/30 09:50:43;;;;;;;8.07;2.80;;;;;;;21.62;43.01;101041.91;5056136;28;20057;-63
2023/06/30 09:53:10;;;;;;;7.50;2.42;;;;;;;21.81;43.53;101046.63;5061429;28;20491;-62
2023/06/30 09:55:46;;;;;;;6.93;2.30;;;;;;;21.50;43.59;101032.91;5046061;28;20049;-63
2023/06/30 09:58:16;;;;;;;7.85;2.17;;;;;;;21.64;42.58;101044.31;5063309;28;20128;-63
2023/06/30 10:00:44;;;;;;;;;;;;;;;21.36;43.93;101027.94;5059354;28;20063;-63
2023/06/30 10:03:16;;;;;;;7.38;2.50;;;;;;;21.62;43.91;101027.88;5062700;28;19920;-63
2023/06/30 10:05:45;;;;;;;7.35;2.47;;;;;;;22.51;42.62;101027.75;5056079;28;20104;-63
2023/06/30 10:08:13;;;;;;;11.70;7.15;;;;;;;22.24;42.98;101018.69;5061980;28;20045;-64
2023/06/30 10:10:42;;;;;;;15.02;7.35;;;;;;;22.08;42.84;101020.91;5059453;28;20049;-65
2023/06/30 10:13:15;;;;;;;11.07;5.63;;;;;;;22.60;43.00;101019.84;5058788;28;20527;-63
2023/06/30 10:15:43;;;;;;;8.48;3.30;;;;;;;22.29;43.94;101009.91;5059453;28;20534;-63
2023/06/30 10:18:12;;;;;;;10.87;2.83;;;;;;;23.07;43.30;101011.41;5067643;28;20041;-63
2023/06/30 10:20:41;;;;;;;9.35;2.80;;;;;;;23.40;42.60;101016.06;5039669;28;20412;-64
2023/06/30 10:23:19;;;;;;;11.73;2.60;;;;;;;23.76;42.89;101006.63;5055232;28;20052;-64
2023/06/30 10:25:48;;;;;;;4.35;1.98;;;;;;;23.71;41.54;101014.63;5062671;28;20055;-62
2023/06/30 10:28:17;;;;;;;8.15;3.00;;;;;;;23.64;43.35;101000.53;5060904;28;20056;-64
2023/06/30 10:30:44;;;;;;;9.68;2.80;;;;;;;23.91;43.35;101007.47;5057151;28;20055;-63
2023/06/30 10:33:12;;;;;;;5.25;2.33;;;;;;;23.17;41.12;101007.88;5058899;28;20044;-62
2023/06/30 10:35:40;;;;;;;17.42;2.72;;;;;;;23.13;44.99;101009.88;5059451;28;20064;-64
2023/06/30 10:38:10;;;;;;;11.57;3.30;;;;;;;23.16;45.14;101009.06;5055768;28;20041;-61
2023/06/30 10:40:37;;;;;;;9.10;3.30;;;;;;;23.29;41.65;100998.34;5057381;28;20480;-65
2023/06/30 10:43:05;;;;;;;15.65;3.22;;;;;;;23.11;45.04;101003.00;5066004;28;20072;-64
2023/06/30 10:45:34;;;;;;;5.68;2.40;;;;;;;22.89;44.48;101010.47;5056265;28;20052;-64
2023/06/30 10:48:28;;;;;;;5.22;1.98;;;;;;;23.22;43.94;101009.53;5056686;28;20049;-65
2023/06/30 10:50:55;;;;;;;5.35;2.20;;;;;;;23.33;43.30;100999.97;5058675;28;20076;-65
2023/06/30 10:53:23;;;;;;;6.63;2.33;;;;;;;23.63;42.46;101008.16;5057265;28;20396;-65
2023/06/30 10:55:54;;;;;;;5.57;2.00;;;;;;;23.67;41.17;101000.56;5050177;28;20127;-64
2023/06/30 10:58:26;;;;;;;6.07;1.95;;;;;;;23.67;40.67;101011.00;5058237;28;20049;-63
2023/06/30 11:01:06;;;;;;;5.25;2.22;;;;;;;22.63;41.12;101010.66;5058087;28;20424;-63
2023/06/30 11:03:56;;;;;;;5.10;2.15;;;;;;;22.07;42.30;101021.28;5063525;28;20056;-64
2023/06/30 11:06:24;;;;;;;;;;;;;;;21.94;43.11;101014.31;5064080;28;20055;-63
2023/06/30 11:09:03;;;;;;;6.18;2.10;;;;;;;22.02;43.69;101005.59;5066087;28;20643;-63
2023/06/30 11:11:50;;;;;;;3.65;2.00;;;;;;;22.68;42.69;101003.88;5064421;28;20041;-63
2023/06/30 11:14:32;;;;;;;5.60;2.10;;;;;;;22.88;41.78;101013.66;5064360;28;20675;-63
2023/06/30 11:17:06;;;;;;;6.85;2.00;;;;;;;22.80;42.12;101014.81;5057019;28;20040;-65
2023/06/30 11:19:37;;;;;;;6.53;1.92;;;;;;;22.80;43.07;101012.00;5062868;28;20051;-64
2023/06/30 11:22:21;;;;;;;8.45;2.38;;;;;;;23.11;43.69;101006.63;5060666;28;20049;-65
2023/06/30 11:24:48;;;;;;;4.13;1.90;;;;;;;23.54;42.13;100995.69;5052178;28;20487;-63
2023/06/30 11:27:16;;;;;;;4.70;1.77;;;;;;;23.77;41.25;100993.34;5057224;28;20056;-63
2023/06/30 11:29:44;;;;;;;10.07;2.83;;;;;;;23.94;40.54;100990.59;5040280;28;20064;-62